sensor_id;sensor_type;location;lat;lon;timestamp;P1;durP1;ratioP1;P2;durP2;ratioP2
54139;SDS011;40046;53.254;5.900;2022-10-22T00:02:02;13.38;;;7.00;;
54139;SDS011;40046;53.254;5.900;2022-10-22T00:04:30;8.95;;;7.22;;
54139;SDS011;40046;53.254;5.900;2022-10-22T00:06:56;11.40;;;7.25;;
54139;SDS011;40046;53.254;5.900;2022-10-22T00:09:22;8.63;;;6.85;;
54139;SDS011;40046;53.254;5.900;2022-10-22T00:11:48;9.73;;;7.20;;
54139;SDS011;40046;53.254;5.900;2022-10-22T00:28:46;11.48;;;7.00;;
54139;SDS011;40046;53.254;5.900;2022-10-22T00:32:00;11.38;;;6.88;;
54139;SDS011;40046;53.254;5.900;2022-10-22T00:35:04;9.80;;;7.53;;
54139;SDS011;40046;53.254;5.900;2022-10-22T00:37:30;13.25;;;7.57;;
54139;SDS011;40046;53.254;5.900;2022-10-22T00:39:56;10.13;;;7.00;;
54139;SDS011;40046;53.254;5.900;2022-10-22T00:42:23;12.10;;;8.52;;
54139;SDS011;40046;53.254;5.900;2022-10-22T00:47:33;9.20;;;7.30;;
54139;SDS011;40046;53.254;5.900;2022-10-22T00:50:00;15.50;;;10.32;;
54139;SDS011;40046;53.254;5.900;2022-10-22T00:52:27;13.45;;;9.27;;
54139;SDS011;40046;53.254;5.900;2022-10-22T00:54:53;11.88;;;8.68;;
54139;SDS011;40046;53.254;5.900;2022-10-22T00:57:19;18.27;;;9.52;;
54139;SDS011;40046;53.254;5.900;2022-10-22T00:59:46;10.38;;;8.55;;
54139;SDS011;40046;53.254;5.900;2022-10-22T01:02:13;14.02;;;9.73;;
54139;SDS011;40046;53.254;5.900;2022-10-22T01:04:39;14.27;;;8.65;;
54139;SDS011;40046;53.254;5.900;2022-10-22T01:07:05;12.65;;;8.52;;
54139;SDS011;40046;53.254;5.900;2022-10-22T01:09:35;12.25;;;9.32;;
54139;SDS011;40046;53.254;5.900;2022-10-22T01:14:42;14.85;;;9.73;;
54139;SDS011;40046;53.254;5.900;2022-10-22T01:22:32;13.00;;;8.38;;
54139;SDS011;40046;53.254;5.900;2022-10-22T01:30:07;13.52;;;8.98;;
54139;SDS011;40046;53.254;5.900;2022-10-22T01:32:36;15.02;;;8.68;;
54139;SDS011;40046;53.254;5.900;2022-10-22T01:35:06;13.90;;;9.13;;
54139;SDS011;40046;53.254;5.900;2022-10-22T01:37:33;11.15;;;8.50;;
54139;SDS011;40046;53.254;5.900;2022-10-22T01:40:01;10.43;;;8.23;;
54139;SDS011;40046;53.254;5.900;2022-10-22T01:42:27;16.75;;;8.55;;
54139;SDS011;40046;53.254;5.900;2022-10-22T01:44:53;12.00;;;8.57;;
54139;SDS011;40046;53.254;5.900;2022-10-22T01:47:38;12.02;;;8.50;;
54139;SDS011;40046;53.254;5.900;2022-10-22T01:57:35;18.23;;;9.05;;
54139;SDS011;40046;53.254;5.900;2022-10-22T02:00:09;15.18;;;8.65;;
54139;SDS011;40046;53.254;5.900;2022-10-22T02:05:06;20.15;;;9.75;;
54139;SDS011;40046;53.254;5.900;2022-10-22T02:07:36;13.93;;;8.80;;
54139;SDS011;40046;53.254;5.900;2022-10-22T02:10:04;14.90;;;8.80;;
54139;SDS011;40046;53.254;5.900;2022-10-22T02:12:31;11.15;;;9.05;;
54139;SDS011;40046;53.254;5.900;2022-10-22T02:14:58;17.17;;;8.40;;
54139;SDS011;40046;53.254;5.900;2022-10-22T02:17:26;11.15;;;7.88;;
54139;SDS011;40046;53.254;5.900;2022-10-22T02:19:56;11.85;;;8.07;;
54139;SDS011;40046;53.254;5.900;2022-10-22T02:22:23;13.38;;;7.20;;
54139;SDS011;40046;53.254;5.900;2022-10-22T02:24:50;11.00;;;8.20;;
54139;SDS011;40046;53.254;5.900;2022-10-22T02:30:08;12.07;;;8.70;;
54139;SDS011;40046;53.254;5.900;2022-10-22T02:32:38;10.57;;;7.53;;
54139;SDS011;40046;53.254;5.900;2022-10-22T02:35:05;10.55;;;7.32;;
54139;SDS011;40046;53.254;5.900;2022-10-22T02:37:32;11.30;;;7.63;;
54139;SDS011;40046;53.254;5.900;2022-10-22T02:39:58;11.07;;;8.45;;
54139;SDS011;40046;53.254;5.900;2022-10-22T02:42:24;15.70;;;8.00;;
54139;SDS011;40046;53.254;5.900;2022-10-22T02:44:51;11.30;;;7.80;;
54139;SDS011;40046;53.254;5.900;2022-10-22T02:47:17;10.63;;;6.82;;
54139;SDS011;40046;53.254;5.900;2022-10-22T02:49:43;11.45;;;7.85;;
54139;SDS011;40046;53.254;5.900;2022-10-22T02:52:09;12.25;;;7.05;;
54139;SDS011;40046;53.254;5.900;2022-10-22T02:54:35;12.18;;;8.55;;
54139;SDS011;40046;53.254;5.900;2022-10-22T02:57:02;12.30;;;7.28;;
54139;SDS011;40046;53.254;5.900;2022-10-22T02:59:28;15.05;;;7.78;;
54139;SDS011;40046;53.254;5.900;2022-10-22T03:01:54;13.70;;;7.40;;
54139;SDS011;40046;53.254;5.900;2022-10-22T03:04:20;10.80;;;7.00;;
54139;SDS011;40046;53.254;5.900;2022-10-22T03:06:46;11.95;;;6.55;;
54139;SDS011;40046;53.254;5.900;2022-10-22T03:09:12;14.73;;;6.75;;
54139;SDS011;40046;53.254;5.900;2022-10-22T03:11:39;9.10;;;6.38;;
54139;SDS011;40046;53.254;5.900;2022-10-22T03:14:05;10.80;;;6.95;;
54139;SDS011;40046;53.254;5.900;2022-10-22T03:16:31;11.07;;;6.90;;
54139;SDS011;40046;53.254;5.900;2022-10-22T03:18:57;11.10;;;6.85;;
54139;SDS011;40046;53.254;5.900;2022-10-22T03:21:59;9.65;;;6.30;;
54139;SDS011;40046;53.254;5.900;2022-10-22T03:24:20;11.30;;;6.72;;
54139;SDS011;40046;53.254;5.900;2022-10-22T03:26:47;13.48;;;6.35;;
54139;SDS011;40046;53.254;5.900;2022-10-22T03:29:14;10.45;;;6.32;;
54139;SDS011;40046;53.254;5.900;2022-10-22T03:31:41;10.57;;;7.57;;
54139;SDS011;40046;53.254;5.900;2022-10-22T03:34:07;12.98;;;6.55;;
54139;SDS011;40046;53.254;5.900;2022-10-22T03:36:33;10.50;;;6.80;;
54139;SDS011;40046;53.254;5.900;2022-10-22T03:39:00;13.25;;;7.13;;
54139;SDS011;40046;53.254;5.900;2022-10-22T03:41:26;13.50;;;7.65;;
54139;SDS011;40046;53.254;5.900;2022-10-22T03:43:53;11.27;;;5.70;;
54139;SDS011;40046;53.254;5.900;2022-10-22T03:46:20;11.82;;;6.72;;
54139;SDS011;40046;53.254;5.900;2022-10-22T03:48:46;13.63;;;6.75;;
54139;SDS011;40046;53.254;5.900;2022-10-22T03:51:12;10.20;;;6.57;;
54139;SDS011;40046;53.254;5.900;2022-10-22T03:53:38;12.43;;;6.25;;
54139;SDS011;40046;53.254;5.900;2022-10-22T03:56:07;10.75;;;5.95;;
54139;SDS011;40046;53.254;5.900;2022-10-22T03:58:34;13.00;;;5.68;;
54139;SDS011;40046;53.254;5.900;2022-10-22T04:01:04;9.85;;;6.60;;
54139;SDS011;40046;53.254;5.900;2022-10-22T04:03:31;9.27;;;5.82;;
54139;SDS011;40046;53.254;5.900;2022-10-22T04:06:04;11.57;;;5.90;;
54139;SDS011;40046;53.254;5.900;2022-10-22T04:10:57;10.38;;;5.32;;
54139;SDS011;40046;53.254;5.900;2022-10-22T04:13:23;11.98;;;5.88;;
54139;SDS011;40046;53.254;5.900;2022-10-22T04:15:50;8.65;;;4.93;;
54139;SDS011;40046;53.254;5.900;2022-10-22T04:18:19;10.18;;;6.38;;
54139;SDS011;40046;53.254;5.900;2022-10-22T04:20:45;10.77;;;5.50;;
54139;SDS011;40046;53.254;5.900;2022-10-22T04:23:12;10.38;;;5.70;;
54139;SDS011;40046;53.254;5.900;2022-10-22T04:25:38;17.65;;;7.65;;
54139;SDS011;40046;53.254;5.900;2022-10-22T04:28:08;13.13;;;5.75;;
54139;SDS011;40046;53.254;5.900;2022-10-22T04:30:35;9.07;;;6.00;;
54139;SDS011;40046;53.254;5.900;2022-10-22T04:33:01;15.05;;;5.63;;
54139;SDS011;40046;53.254;5.900;2022-10-22T04:35:28;9.57;;;4.72;;
54139;SDS011;40046;53.254;5.900;2022-10-22T04:37:54;13.80;;;6.68;;
54139;SDS011;40046;53.254;5.900;2022-10-22T04:40:20;13.63;;;6.07;;
54139;SDS011;40046;53.254;5.900;2022-10-22T04:42:46;10.40;;;4.30;;
54139;SDS011;40046;53.254;5.900;2022-10-22T04:45:13;9.82;;;5.20;;
54139;SDS011;40046;53.254;5.900;2022-10-22T04:47:39;13.15;;;4.80;;
54139;SDS011;40046;53.254;5.900;2022-10-22T04:50:06;9.75;;;4.75;;
54139;SDS011;40046;53.254;5.900;2022-10-22T04:52:32;7.95;;;4.93;;
54139;SDS011;40046;53.254;5.900;2022-10-22T04:54:58;9.15;;;4.90;;
54139;SDS011;40046;53.254;5.900;2022-10-22T04:57:28;10.35;;;4.43;;
54139;SDS011;40046;53.254;5.900;2022-10-22T04:59:54;12.35;;;5.10;;
54139;SDS011;40046;53.254;5.900;2022-10-22T05:02:21;15.40;;;5.07;;
54139;SDS011;40046;53.254;5.900;2022-10-22T05:04:47;10.82;;;4.25;;
54139;SDS011;40046;53.254;5.900;2022-10-22T05:07:13;9.60;;;4.18;;
54139;SDS011;40046;53.254;5.900;2022-10-22T05:09:39;9.85;;;4.75;;
54139;SDS011;40046;53.254;5.900;2022-10-22T05:12:05;10.13;;;5.15;;
54139;SDS011;40046;53.254;5.900;2022-10-22T05:14:31;9.57;;;5.22;;
54139;SDS011;40046;53.254;5.900;2022-10-22T05:16:58;12.77;;;5.35;;
54139;SDS011;40046;53.254;5.900;2022-10-22T05:19:25;8.73;;;4.22;;
54139;SDS011;40046;53.254;5.900;2022-10-22T05:21:52;12.48;;;4.57;;
54139;SDS011;40046;53.254;5.900;2022-10-22T05:24:19;8.25;;;4.75;;
54139;SDS011;40046;53.254;5.900;2022-10-22T05:26:47;7.13;;;3.95;;
54139;SDS011;40046;53.254;5.900;2022-10-22T05:29:13;8.88;;;4.18;;
54139;SDS011;40046;53.254;5.900;2022-10-22T05:31:39;9.30;;;4.32;;
54139;SDS011;40046;53.254;5.900;2022-10-22T05:34:06;12.82;;;4.40;;
54139;SDS011;40046;53.254;5.900;2022-10-22T05:36:32;10.60;;;5.55;;
54139;SDS011;40046;53.254;5.900;2022-10-22T05:38:58;6.78;;;4.38;;
54139;SDS011;40046;53.254;5.900;2022-10-22T05:41:24;10.13;;;3.88;;
54139;SDS011;40046;53.254;5.900;2022-10-22T05:43:53;13.80;;;4.65;;
54139;SDS011;40046;53.254;5.900;2022-10-22T05:46:20;12.40;;;4.82;;
54139;SDS011;40046;53.254;5.900;2022-10-22T05:48:50;9.65;;;4.57;;
54139;SDS011;40046;53.254;5.900;2022-10-22T05:51:17;10.20;;;4.20;;
54139;SDS011;40046;53.254;5.900;2022-10-22T05:53:43;9.77;;;4.57;;
54139;SDS011;40046;53.254;5.900;2022-10-22T05:56:10;8.95;;;4.35;;
54139;SDS011;40046;53.254;5.900;2022-10-22T05:58:37;13.43;;;4.75;;
54139;SDS011;40046;53.254;5.900;2022-10-22T06:01:04;9.38;;;4.50;;
54139;SDS011;40046;53.254;5.900;2022-10-22T06:03:31;10.25;;;4.55;;
54139;SDS011;40046;53.254;5.900;2022-10-22T06:06:01;11.07;;;4.75;;
54139;SDS011;40046;53.254;5.900;2022-10-22T06:08:27;11.25;;;5.05;;
54139;SDS011;40046;53.254;5.900;2022-10-22T06:10:54;11.00;;;5.60;;
54139;SDS011;40046;53.254;5.900;2022-10-22T06:16:11;8.05;;;4.60;;
54139;SDS011;40046;53.254;5.900;2022-10-22T06:18:37;11.50;;;4.78;;
54139;SDS011;40046;53.254;5.900;2022-10-22T06:21:04;14.15;;;4.80;;
54139;SDS011;40046;53.254;5.900;2022-10-22T06:23:31;9.63;;;5.85;;
54139;SDS011;40046;53.254;5.900;2022-10-22T06:25:57;10.07;;;4.90;;
54139;SDS011;40046;53.254;5.900;2022-10-22T06:28:24;8.15;;;4.63;;
54139;SDS011;40046;53.254;5.900;2022-10-22T06:30:50;9.90;;;5.60;;
54139;SDS011;40046;53.254;5.900;2022-10-22T06:33:16;11.70;;;5.03;;
54139;SDS011;40046;53.254;5.900;2022-10-22T06:35:43;11.40;;;6.25;;
54139;SDS011;40046;53.254;5.900;2022-10-22T06:38:09;9.32;;;4.93;;
54139;SDS011;40046;53.254;5.900;2022-10-22T06:40:36;13.80;;;5.50;;
54139;SDS011;40046;53.254;5.900;2022-10-22T06:43:02;8.52;;;4.53;;
54139;SDS011;40046;53.254;5.900;2022-10-22T06:45:30;13.20;;;5.75;;
54139;SDS011;40046;53.254;5.900;2022-10-22T06:47:57;10.15;;;4.70;;
54139;SDS011;40046;53.254;5.900;2022-10-22T06:50:23;8.73;;;5.28;;
54139;SDS011;40046;53.254;5.900;2022-10-22T06:52:49;10.68;;;5.55;;
54139;SDS011;40046;53.254;5.900;2022-10-22T06:55:15;12.88;;;5.43;;
54139;SDS011;40046;53.254;5.900;2022-10-22T06:57:41;9.75;;;6.35;;
54139;SDS011;40046;53.254;5.900;2022-10-22T07:00:07;10.90;;;5.78;;
54139;SDS011;40046;53.254;5.900;2022-10-22T07:02:34;10.15;;;5.55;;
54139;SDS011;40046;53.254;5.900;2022-10-22T07:05:00;10.23;;;5.07;;
54139;SDS011;40046;53.254;5.900;2022-10-22T07:07:26;13.82;;;5.20;;
54139;SDS011;40046;53.254;5.900;2022-10-22T07:09:52;13.30;;;5.40;;
54139;SDS011;40046;53.254;5.900;2022-10-22T07:12:18;11.52;;;6.30;;
54139;SDS011;40046;53.254;5.900;2022-10-22T07:14:44;8.70;;;5.53;;
54139;SDS011;40046;53.254;5.900;2022-10-22T07:17:10;13.38;;;5.65;;
54139;SDS011;40046;53.254;5.900;2022-10-22T07:19:36;11.40;;;5.22;;
54139;SDS011;40046;53.254;5.900;2022-10-22T07:22:03;12.25;;;5.47;;
54139;SDS011;40046;53.254;5.900;2022-10-22T07:24:29;9.30;;;4.57;;
54139;SDS011;40046;53.254;5.900;2022-10-22T07:26:55;14.82;;;5.10;;
54139;SDS011;40046;53.254;5.900;2022-10-22T07:29:21;12.40;;;6.15;;
54139;SDS011;40046;53.254;5.900;2022-10-22T07:31:47;11.65;;;5.40;;
54139;SDS011;40046;53.254;5.900;2022-10-22T07:34:13;9.52;;;5.35;;
54139;SDS011;40046;53.254;5.900;2022-10-22T07:36:39;9.48;;;5.55;;
54139;SDS011;40046;53.254;5.900;2022-10-22T07:39:06;9.05;;;4.80;;
54139;SDS011;40046;53.254;5.900;2022-10-22T07:41:32;10.30;;;4.72;;
54139;SDS011;40046;53.254;5.900;2022-10-22T07:43:58;9.55;;;4.88;;
54139;SDS011;40046;53.254;5.900;2022-10-22T07:46:24;13.13;;;6.25;;
54139;SDS011;40046;53.254;5.900;2022-10-22T07:48:50;13.05;;;5.00;;
54139;SDS011;40046;53.254;5.900;2022-10-22T07:51:17;10.25;;;4.85;;
54139;SDS011;40046;53.254;5.900;2022-10-22T07:53:43;8.70;;;4.70;;
54139;SDS011;40046;53.254;5.900;2022-10-22T07:56:09;10.40;;;4.88;;
54139;SDS011;40046;53.254;5.900;2022-10-22T07:58:35;16.42;;;7.47;;
54139;SDS011;40046;53.254;5.900;2022-10-22T08:01:01;10.82;;;5.95;;
54139;SDS011;40046;53.254;5.900;2022-10-22T08:03:29;16.10;;;6.03;;
54139;SDS011;40046;53.254;5.900;2022-10-22T08:05:56;10.52;;;6.28;;
54139;SDS011;40046;53.254;5.900;2022-10-22T08:08:22;15.68;;;7.38;;
54139;SDS011;40046;53.254;5.900;2022-10-22T08:10:49;9.80;;;6.35;;
54139;SDS011;40046;53.254;5.900;2022-10-22T08:13:17;10.38;;;6.22;;
54139;SDS011;40046;53.254;5.900;2022-10-22T08:15:43;13.43;;;5.97;;
54139;SDS011;40046;53.254;5.900;2022-10-22T08:18:11;13.70;;;5.85;;
54139;SDS011;40046;53.254;5.900;2022-10-22T08:20:37;18.45;;;8.40;;
54139;SDS011;40046;53.254;5.900;2022-10-22T08:23:03;11.57;;;6.38;;
54139;SDS011;40046;53.254;5.900;2022-10-22T08:25:29;17.65;;;6.43;;
54139;SDS011;40046;53.254;5.900;2022-10-22T08:27:56;16.70;;;10.55;;
54139;SDS011;40046;53.254;5.900;2022-10-22T08:30:22;20.33;;;8.05;;
54139;SDS011;40046;53.254;5.900;2022-10-22T08:32:48;12.45;;;6.20;;
54139;SDS011;40046;53.254;5.900;2022-10-22T08:35:14;11.13;;;6.80;;
54139;SDS011;40046;53.254;5.900;2022-10-22T08:37:40;8.75;;;4.68;;
54139;SDS011;40046;53.254;5.900;2022-10-22T08:40:06;11.60;;;4.63;;
54139;SDS011;40046;53.254;5.900;2022-10-22T08:42:40;15.95;;;5.38;;
54139;SDS011;40046;53.254;5.900;2022-10-22T08:45:11;15.32;;;7.20;;
54139;SDS011;40046;53.254;5.900;2022-10-22T08:50:26;15.43;;;4.45;;
54139;SDS011;40046;53.254;5.900;2022-10-22T08:52:56;13.95;;;5.05;;
54139;SDS011;40046;53.254;5.900;2022-10-22T08:55:22;10.70;;;3.95;;
54139;SDS011;40046;53.254;5.900;2022-10-22T08:58:08;10.70;;;3.53;;
54139;SDS011;40046;53.254;5.900;2022-10-22T09:01:02;10.88;;;4.13;;
54139;SDS011;40046;53.254;5.900;2022-10-22T09:08:37;11.60;;;3.13;;
54139;SDS011;40046;53.254;5.900;2022-10-22T09:13:49;10.60;;;3.38;;
54139;SDS011;40046;53.254;5.900;2022-10-22T09:16:20;7.70;;;3.60;;
54139;SDS011;40046;53.254;5.900;2022-10-22T09:19:05;12.10;;;2.95;;
54139;SDS011;40046;53.254;5.900;2022-10-22T09:21:42;11.95;;;2.78;;
54139;SDS011;40046;53.254;5.900;2022-10-22T09:24:13;10.82;;;4.00;;
54139;SDS011;40046;53.254;5.900;2022-10-22T09:26:41;10.02;;;4.35;;
54139;SDS011;40046;53.254;5.900;2022-10-22T09:29:12;9.20;;;3.53;;
54139;SDS011;40046;53.254;5.900;2022-10-22T09:31:39;9.43;;;2.65;;
54139;SDS011;40046;53.254;5.900;2022-10-22T09:34:05;12.95;;;3.13;;
54139;SDS011;40046;53.254;5.900;2022-10-22T09:36:32;11.02;;;2.78;;
54139;SDS011;40046;53.254;5.900;2022-10-22T09:38:58;16.65;;;4.85;;
54139;SDS011;40046;53.254;5.900;2022-10-22T09:41:26;13.98;;;3.03;;
54139;SDS011;40046;53.254;5.900;2022-10-22T09:43:55;8.07;;;3.25;;
54139;SDS011;40046;53.254;5.900;2022-10-22T09:46:22;11.90;;;2.80;;
54139;SDS011;40046;53.254;5.900;2022-10-22T09:48:50;18.13;;;4.25;;
54139;SDS011;40046;53.254;5.900;2022-10-22T09:51:21;23.40;;;7.70;;
54139;SDS011;40046;53.254;5.900;2022-10-22T09:53:55;22.88;;;8.93;;
54139;SDS011;40046;53.254;5.900;2022-10-22T09:56:25;15.77;;;4.10;;
54139;SDS011;40046;53.254;5.900;2022-10-22T09:58:54;8.88;;;3.33;;
54139;SDS011;40046;53.254;5.900;2022-10-22T10:01:24;10.75;;;3.65;;
54139;SDS011;40046;53.254;5.900;2022-10-22T10:03:51;12.85;;;2.83;;
54139;SDS011;40046;53.254;5.900;2022-10-22T10:06:21;11.93;;;3.28;;
54139;SDS011;40046;53.254;5.900;2022-10-22T10:08:47;12.07;;;3.63;;
54139;SDS011;40046;53.254;5.900;2022-10-22T10:11:27;7.57;;;2.97;;
54139;SDS011;40046;53.254;5.900;2022-10-22T10:14:08;9.85;;;3.60;;
54139;SDS011;40046;53.254;5.900;2022-10-22T10:27:46;11.70;;;3.47;;
54139;SDS011;40046;53.254;5.900;2022-10-22T10:30:18;13.10;;;3.22;;
54139;SDS011;40046;53.254;5.900;2022-10-22T10:32:48;16.67;;;3.92;;
54139;SDS011;40046;53.254;5.900;2022-10-22T10:35:24;13.82;;;3.92;;
54139;SDS011;40046;53.254;5.900;2022-10-22T10:38:11;13.32;;;3.22;;
54139;SDS011;40046;53.254;5.900;2022-10-22T10:50:50;8.68;;;3.70;;
54139;SDS011;40046;53.254;5.900;2022-10-22T10:55:56;8.60;;;3.70;;
54139;SDS011;40046;53.254;5.900;2022-10-22T10:58:33;8.48;;;3.45;;
54139;SDS011;40046;53.254;5.900;2022-10-22T11:01:08;11.23;;;3.75;;
54139;SDS011;40046;53.254;5.900;2022-10-22T11:06:22;11.18;;;4.28;;
54139;SDS011;40046;53.254;5.900;2022-10-22T11:08:51;8.93;;;3.88;;
54139;SDS011;40046;53.254;5.900;2022-10-22T11:11:38;9.38;;;3.88;;
54139;SDS011;40046;53.254;5.900;2022-10-22T11:16:39;8.57;;;4.30;;
54139;SDS011;40046;53.254;5.900;2022-10-22T11:19:22;10.03;;;4.67;;
54139;SDS011;40046;53.254;5.900;2022-10-22T11:24:34;11.77;;;5.13;;
54139;SDS011;40046;53.254;5.900;2022-10-22T11:27:03;10.98;;;4.80;;
54139;SDS011;40046;53.254;5.900;2022-10-22T11:29:33;15.20;;;5.85;;
54139;SDS011;40046;53.254;5.900;2022-10-22T11:32:03;18.02;;;5.10;;
54139;SDS011;40046;53.254;5.900;2022-10-22T11:34:32;12.82;;;4.88;;
54139;SDS011;40046;53.254;5.900;2022-10-22T11:36:59;11.00;;;5.32;;
54139;SDS011;40046;53.254;5.900;2022-10-22T11:39:30;11.82;;;4.85;;
54139;SDS011;40046;53.254;5.900;2022-10-22T11:41:58;9.45;;;4.55;;
54139;SDS011;40046;53.254;5.900;2022-10-22T11:44:27;15.15;;;4.15;;
54139;SDS011;40046;53.254;5.900;2022-10-22T11:49:42;10.32;;;3.70;;
54139;SDS011;40046;53.254;5.900;2022-10-22T11:55:02;6.35;;;2.97;;
54139;SDS011;40046;53.254;5.900;2022-10-22T11:57:35;11.02;;;3.63;;
54139;SDS011;40046;53.254;5.900;2022-10-22T12:00:08;9.32;;;2.72;;
54139;SDS011;40046;53.254;5.900;2022-10-22T12:02:38;7.70;;;2.92;;
54139;SDS011;40046;53.254;5.900;2022-10-22T12:10:17;11.27;;;5.18;;
54139;SDS011;40046;53.254;5.900;2022-10-22T12:12:44;7.97;;;3.83;;
54139;SDS011;40046;53.254;5.900;2022-10-22T12:21:52;13.05;;;3.22;;
54139;SDS011;40046;53.254;5.900;2022-10-22T12:24:41;11.77;;;4.68;;
54139;SDS011;40046;53.254;5.900;2022-10-22T12:27:58;10.30;;;3.47;;
54139;SDS011;40046;53.254;5.900;2022-10-22T12:31:21;10.45;;;3.50;;
54139;SDS011;40046;53.254;5.900;2022-10-22T12:34:30;8.52;;;3.13;;
54139;SDS011;40046;53.254;5.900;2022-10-22T12:57:41;5.47;;;1.05;;
54139;SDS011;40046;53.254;5.900;2022-10-22T13:01:08;7.18;;;1.38;;
54139;SDS011;40046;53.254;5.900;2022-10-22T13:04:03;14.90;;;1.88;;
54139;SDS011;40046;53.254;5.900;2022-10-22T13:09:58;10.05;;;1.85;;
54139;SDS011;40046;53.254;5.900;2022-10-22T13:12:54;6.20;;;1.65;;
54139;SDS011;40046;53.254;5.900;2022-10-22T13:16:13;5.90;;;1.00;;
54139;SDS011;40046;53.254;5.900;2022-10-22T13:18:47;7.18;;;1.25;;
54139;SDS011;40046;53.254;5.900;2022-10-22T13:22:33;9.07;;;1.90;;
54139;SDS011;40046;53.254;5.900;2022-10-22T13:28:53;8.68;;;1.60;;
54139;SDS011;40046;53.254;5.900;2022-10-22T13:31:45;7.45;;;1.77;;
54139;SDS011;40046;53.254;5.900;2022-10-22T13:37:42;6.50;;;1.60;;
54139;SDS011;40046;53.254;5.900;2022-10-22T13:40:50;5.22;;;0.93;;
54139;SDS011;40046;53.254;5.900;2022-10-22T13:44:09;3.60;;;0.65;;
54139;SDS011;40046;53.254;5.900;2022-10-22T13:47:22;5.72;;;0.80;;
54139;SDS011;40046;53.254;5.900;2022-10-22T13:50:52;6.13;;;1.08;;
54139;SDS011;40046;53.254;5.900;2022-10-22T13:53:15;5.07;;;0.95;;
54139;SDS011;40046;53.254;5.900;2022-10-22T13:56:16;6.10;;;0.88;;
54139;SDS011;40046;53.254;5.900;2022-10-22T13:59:06;6.40;;;0.93;;
54139;SDS011;40046;53.254;5.900;2022-10-22T14:02:42;4.53;;;0.80;;
54139;SDS011;40046;53.254;5.900;2022-10-22T14:06:06;7.65;;;1.55;;
54139;SDS011;40046;53.254;5.900;2022-10-22T14:09:55;6.93;;;1.27;;
54139;SDS011;40046;53.254;5.900;2022-10-22T14:27:12;10.38;;;2.47;;
54139;SDS011;40046;53.254;5.900;2022-10-22T14:29:39;6.97;;;1.08;;
54139;SDS011;40046;53.254;5.900;2022-10-22T14:32:08;10.25;;;1.75;;
54139;SDS011;40046;53.254;5.900;2022-10-22T14:34:40;4.97;;;1.10;;
54139;SDS011;40046;53.254;5.900;2022-10-22T14:37:12;6.22;;;1.60;;
54139;SDS011;40046;53.254;5.900;2022-10-22T14:39:43;6.15;;;1.10;;
54139;SDS011;40046;53.254;5.900;2022-10-22T14:42:17;6.63;;;1.25;;
54139;SDS011;40046;53.254;5.900;2022-10-22T14:44:44;9.25;;;2.17;;
54139;SDS011;40046;53.254;5.900;2022-10-22T14:47:10;6.90;;;1.40;;
54139;SDS011;40046;53.254;5.900;2022-10-22T14:49:36;7.90;;;1.67;;
54139;SDS011;40046;53.254;5.900;2022-10-22T14:52:02;10.02;;;1.75;;
54139;SDS011;40046;53.254;5.900;2022-10-22T14:54:28;7.57;;;1.77;;
54139;SDS011;40046;53.254;5.900;2022-10-22T14:56:53;11.20;;;2.30;;
54139;SDS011;40046;53.254;5.900;2022-10-22T14:59:19;13.63;;;2.88;;
54139;SDS011;40046;53.254;5.900;2022-10-22T15:01:45;13.07;;;1.70;;
54139;SDS011;40046;53.254;5.900;2022-10-22T15:04:10;17.42;;;4.32;;
54139;SDS011;40046;53.254;5.900;2022-10-22T15:06:36;13.32;;;2.10;;
54139;SDS011;40046;53.254;5.900;2022-10-22T15:09:02;15.10;;;3.50;;
54139;SDS011;40046;53.254;5.900;2022-10-22T15:11:28;7.22;;;2.45;;
54139;SDS011;40046;53.254;5.900;2022-10-22T15:13:53;14.07;;;4.45;;
54139;SDS011;40046;53.254;5.900;2022-10-22T15:16:19;15.38;;;2.67;;
54139;SDS011;40046;53.254;5.900;2022-10-22T15:18:45;13.05;;;2.15;;
54139;SDS011;40046;53.254;5.900;2022-10-22T15:21:16;14.63;;;3.10;;
54139;SDS011;40046;53.254;5.900;2022-10-22T15:23:43;13.27;;;2.63;;
54139;SDS011;40046;53.254;5.900;2022-10-22T15:26:09;11.88;;;2.47;;
54139;SDS011;40046;53.254;5.900;2022-10-22T15:28:37;10.98;;;2.33;;
54139;SDS011;40046;53.254;5.900;2022-10-22T15:31:03;11.75;;;2.80;;
54139;SDS011;40046;53.254;5.900;2022-10-22T15:33:29;13.10;;;2.67;;
54139;SDS011;40046;53.254;5.900;2022-10-22T15:35:55;11.15;;;2.58;;
54139;SDS011;40046;53.254;5.900;2022-10-22T15:38:30;9.15;;;2.03;;
54139;SDS011;40046;53.254;5.900;2022-10-22T15:41:03;10.88;;;3.60;;
54139;SDS011;40046;53.254;5.900;2022-10-22T15:46:09;14.77;;;2.60;;
54139;SDS011;40046;53.254;5.900;2022-10-22T15:48:36;19.80;;;2.53;;
54139;SDS011;40046;53.254;5.900;2022-10-22T15:51:13;14.32;;;2.42;;
54139;SDS011;40046;53.254;5.900;2022-10-22T15:53:40;9.30;;;2.08;;
54139;SDS011;40046;53.254;5.900;2022-10-22T15:56:06;17.13;;;3.10;;
54139;SDS011;40046;53.254;5.900;2022-10-22T15:58:33;14.88;;;2.33;;
54139;SDS011;40046;53.254;5.900;2022-10-22T16:01:07;10.70;;;4.13;;
54139;SDS011;40046;53.254;5.900;2022-10-22T16:03:37;13.73;;;2.40;;
54139;SDS011;40046;53.254;5.900;2022-10-22T16:06:03;16.92;;;4.60;;
54139;SDS011;40046;53.254;5.900;2022-10-22T16:08:29;14.75;;;2.33;;
54139;SDS011;40046;53.254;5.900;2022-10-22T16:10:55;9.43;;;2.20;;
54139;SDS011;40046;53.254;5.900;2022-10-22T16:13:21;12.25;;;2.80;;
54139;SDS011;40046;53.254;5.900;2022-10-22T16:15:49;14.77;;;2.88;;
54139;SDS011;40046;53.254;5.900;2022-10-22T16:18:15;13.18;;;2.95;;
54139;SDS011;40046;53.254;5.900;2022-10-22T16:20:42;11.57;;;2.63;;
54139;SDS011;40046;53.254;5.900;2022-10-22T16:23:08;11.70;;;3.13;;
54139;SDS011;40046;53.254;5.900;2022-10-22T16:25:40;22.33;;;4.43;;
54139;SDS011;40046;53.254;5.900;2022-10-22T16:28:07;18.40;;;3.05;;
54139;SDS011;40046;53.254;5.900;2022-10-22T16:30:35;12.57;;;2.90;;
54139;SDS011;40046;53.254;5.900;2022-10-22T16:33:02;19.80;;;5.30;;
54139;SDS011;40046;53.254;5.900;2022-10-22T16:35:29;27.48;;;5.50;;
54139;SDS011;40046;53.254;5.900;2022-10-22T16:37:55;12.02;;;3.20;;
54139;SDS011;40046;53.254;5.900;2022-10-22T16:40:21;17.08;;;4.60;;
54139;SDS011;40046;53.254;5.900;2022-10-22T16:42:47;16.17;;;3.67;;
54139;SDS011;40046;53.254;5.900;2022-10-22T16:45:13;15.02;;;5.25;;
54139;SDS011;40046;53.254;5.900;2022-10-22T16:47:39;14.80;;;4.18;;
54139;SDS011;40046;53.254;5.900;2022-10-22T16:50:07;16.42;;;3.78;;
54139;SDS011;40046;53.254;5.900;2022-10-22T16:52:34;14.77;;;3.67;;
54139;SDS011;40046;53.254;5.900;2022-10-22T16:55:00;17.75;;;5.50;;
54139;SDS011;40046;53.254;5.900;2022-10-22T16:57:26;14.32;;;4.75;;
54139;SDS011;40046;53.254;5.900;2022-10-22T16:59:52;22.80;;;4.82;;
54139;SDS011;40046;53.254;5.900;2022-10-22T17:02:19;15.32;;;4.15;;
54139;SDS011;40046;53.254;5.900;2022-10-22T17:04:44;18.67;;;4.85;;
54139;SDS011;40046;53.254;5.900;2022-10-22T17:07:10;17.25;;;5.47;;
54139;SDS011;40046;53.254;5.900;2022-10-22T17:09:36;18.98;;;4.50;;
54139;SDS011;40046;53.254;5.900;2022-10-22T17:12:02;20.00;;;3.67;;
54139;SDS011;40046;53.254;5.900;2022-10-22T17:14:28;29.13;;;7.30;;
54139;SDS011;40046;53.254;5.900;2022-10-22T17:16:54;22.35;;;5.20;;
54139;SDS011;40046;53.254;5.900;2022-10-22T17:19:20;17.92;;;4.32;;
54139;SDS011;40046;53.254;5.900;2022-10-22T17:21:47;18.88;;;6.57;;
54139;SDS011;40046;53.254;5.900;2022-10-22T17:24:14;13.85;;;4.75;;
54139;SDS011;40046;53.254;5.900;2022-10-22T17:26:39;19.25;;;4.35;;
54139;SDS011;40046;53.254;5.900;2022-10-22T17:29:05;23.70;;;5.88;;
54139;SDS011;40046;53.254;5.900;2022-10-22T17:31:32;18.52;;;5.57;;
54139;SDS011;40046;53.254;5.900;2022-10-22T17:34:02;10.93;;;3.92;;
54139;SDS011;40046;53.254;5.900;2022-10-22T17:36:34;11.80;;;4.00;;